createdAt,value
2019-05-22T00:00:30.504Z,100379.02
2019-05-22T00:03:11.805Z,100388.39
2019-05-22T00:05:48.379Z,100391.34
2019-05-22T00:08:23.633Z,100390.51
2019-05-22T00:10:59.983Z,100393.58
2019-05-22T00:13:38.400Z,100398.77
2019-05-22T00:16:15.697Z,100406.30
2019-05-22T00:18:56.414Z,100410.53
2019-05-22T00:21:31.826Z,100413.84
2019-05-22T00:24:11.775Z,100410.65
2019-05-22T00:26:47.021Z,100404.34
2019-05-22T00:29:22.590Z,100417.55
2019-05-22T00:32:13.724Z,100412.61
2019-05-22T00:34:51.180Z,100410.52
2019-05-22T00:37:30.539Z,100411.63
2019-05-22T00:40:16.229Z,100406.73
2019-05-22T00:43:04.052Z,100406.73
2019-05-22T00:45:39.721Z,100433.22
2019-05-22T00:48:21.894Z,100430.48
2019-05-22T00:51:05.685Z,100436.02
2019-05-22T00:53:52.849Z,100436.87
2019-05-22T00:56:38.542Z,100442.81
2019-05-22T00:59:35.459Z,100445.52
2019-05-22T01:02:27.063Z,100446.99
2019-05-22T01:05:02.154Z,100452.89
2019-05-22T01:07:39.898Z,100452.64
2019-05-22T01:10:15.877Z,100456.83
2019-05-22T01:12:55.245Z,100456.97
2019-05-22T01:15:32.327Z,100452.51
2019-05-22T01:18:10.875Z,100448.70
2019-05-22T01:20:49.102Z,100451.89
2019-05-22T01:23:29.021Z,100454.59
2019-05-22T01:26:03.492Z,100464.09
2019-05-22T01:28:39.261Z,100470.36
2019-05-22T01:31:22.834Z,100471.83
2019-05-22T01:34:16.526Z,100472.67
2019-05-22T01:36:53.368Z,100470.95
2019-05-22T01:39:32.113Z,100480.95
2019-05-22T01:42:10.907Z,100469.09
2019-05-22T01:45:01.356Z,100478.95
2019-05-22T01:47:33.905Z,100475.61
2019-05-22T01:50:14.479Z,100480.42
2019-05-22T01:52:51.765Z,100480.64
2019-05-22T01:55:28.194Z,100473.76
2019-05-22T01:58:04.449Z,100476.20
2019-05-22T02:00:42.419Z,100464.61
2019-05-22T02:03:18.107Z,100462.27
2019-05-22T02:05:54.526Z,100465.30
2019-05-22T02:08:31.038Z,100474.42
2019-05-22T02:11:08.666Z,100476.03
2019-05-22T02:13:52.682Z,100482.69
2019-05-22T02:16:29.365Z,100480.13
2019-05-22T02:19:05.458Z,100479.77
2019-05-22T02:21:41.141Z,100488.48
2019-05-22T02:24:18.952Z,100489.69
2019-05-22T02:26:56.399Z,100488.84
2019-05-22T02:29:33.596Z,100479.83
2019-05-22T02:32:12.031Z,100488.06
2019-05-22T02:34:48.102Z,100482.65
2019-05-22T02:37:30.271Z,100484.11
2019-05-22T02:40:24.873Z,100483.48
2019-05-22T02:43:00.565Z,100478.08
2019-05-22T02:45:36.721Z,100483.19
2019-05-22T02:48:14.303Z,100490.69
2019-05-22T02:50:50.224Z,100492.07
2019-05-22T02:53:25.918Z,100496.13
2019-05-22T02:56:07.036Z,100501.80
2019-05-22T02:58:42.706Z,100501.53
2019-05-22T03:01:19.320Z,100504.72
2019-05-22T03:03:55.333Z,100507.41
2019-05-22T03:06:31.596Z,100504.97
2019-05-22T03:09:20.840Z,100517.67
2019-05-22T03:12:02.449Z,100523.91
2019-05-22T03:14:39.236Z,100521.53
2019-05-22T03:17:19.645Z,100524.23
2019-05-22T03:19:54.935Z,100524.84
2019-05-22T03:22:44.876Z,100522.52
2019-05-22T03:25:20.137Z,100523.60
2019-05-22T03:27:55.272Z,100526.67
2019-05-22T03:30:38.197Z,100529.73
2019-05-22T03:33:15.698Z,100528.75
2019-05-22T03:35:53.995Z,100529.73
2019-05-22T03:38:31.424Z,100531.45
2019-05-22T03:41:09.703Z,100531.83
2019-05-22T03:43:45.450Z,100530.48
2019-05-22T03:46:25.593Z,100534.52
2019-05-22T03:49:01.717Z,100531.03
2019-05-22T03:51:38.506Z,100539.66
2019-05-22T03:54:15.172Z,100535.73
2019-05-22T03:56:50.594Z,100546.80
2019-05-22T03:59:26.983Z,100552.05
2019-05-22T04:02:02.120Z,100549.34
2019-05-22T04:04:40.762Z,100556.05
2019-05-22T04:07:17.118Z,100559.37
2019-05-22T04:09:53.086Z,100559.37
2019-05-22T04:12:29.700Z,100563.06
2019-05-22T04:15:08.075Z,100566.69
2019-05-22T04:17:46.023Z,100572.75
2019-05-22T04:20:21.735Z,100566.42
2019-05-22T04:22:58.114Z,100566.05
2019-05-22T04:25:33.639Z,100576.64
2019-05-22T04:28:08.926Z,100579.95
2019-05-22T04:30:47.146Z,100582.56
2019-05-22T04:33:27.312Z,100576.23
2019-05-22T04:36:03.311Z,100579.31
2019-05-22T04:38:40.275Z,100584.98
2019-05-22T04:41:15.671Z,100579.75
2019-05-22T04:43:53.756Z,100585.73
2019-05-22T04:46:30.210Z,100586.81
2019-05-22T04:49:05.516Z,100587.80
2019-05-22T04:51:40.801Z,100582.45
2019-05-22T04:54:16.089Z,100578.12
2019-05-22T04:56:51.812Z,100589.47
2019-05-22T04:59:27.061Z,100585.24
2019-05-22T05:02:05.058Z,100591.77
2019-05-22T05:04:41.919Z,100589.45
2019-05-22T05:07:19.311Z,100597.84
2019-05-22T05:09:55.525Z,100587.67
2019-05-22T05:12:31.050Z,100602.16
2019-05-22T05:15:10.542Z,100600.11
2019-05-22T05:17:46.087Z,100611.77
2019-05-22T05:20:22.737Z,100607.67
2019-05-22T05:22:58.092Z,100612.57
2019-05-22T05:25:34.112Z,100604.36
2019-05-22T05:28:11.497Z,100608.52
2019-05-22T05:30:46.897Z,100606.31
2019-05-22T05:33:23.191Z,100607.95
2019-05-22T05:35:59.861Z,100607.88
2019-05-22T05:38:41.523Z,100603.81
2019-05-22T05:41:16.700Z,100605.16
2019-05-22T05:43:54.511Z,100607.41
2019-05-22T05:46:29.893Z,100604.53
2019-05-22T05:49:05.572Z,100603.77
2019-05-22T05:51:43.306Z,100616.19
2019-05-22T05:54:19.464Z,100611.81
2019-05-22T05:56:57.474Z,100615.36
2019-05-22T05:59:34.466Z,100610.28
2019-05-22T06:02:10.073Z,100608.00
2019-05-22T06:04:54.643Z,100605.59
2019-05-22T06:07:36.892Z,100613.32
2019-05-22T06:10:29.733Z,100614.77
2019-05-22T06:13:06.673Z,100619.98
2019-05-22T06:16:15.559Z,100625.85
2019-05-22T06:18:57.198Z,100630.97
2019-05-22T06:21:32.535Z,100642.23
2019-05-22T06:24:37.544Z,100647.73
2019-05-22T06:27:16.044Z,100653.22
2019-05-22T06:30:07.105Z,100656.90
2019-05-22T06:32:57.958Z,100651.50
2019-05-22T06:35:36.562Z,100661.14
2019-05-22T06:38:47.505Z,100656.14
2019-05-22T06:41:25.104Z,100657.19
2019-05-22T06:44:26.079Z,100647.78
2019-05-22T06:47:01.952Z,100656.17
2019-05-22T06:49:43.431Z,100663.52
2019-05-22T06:52:22.031Z,100670.09
2019-05-22T06:54:58.722Z,100670.69
2019-05-22T06:57:34.784Z,100672.22
2019-05-22T07:00:16.214Z,100676.94
2019-05-22T07:02:52.020Z,100683.12
2019-05-22T07:05:33.602Z,100684.09
2019-05-22T07:08:09.664Z,100680.61
2019-05-22T07:10:46.753Z,100684.06
2019-05-22T07:13:36.232Z,100682.62
2019-05-22T07:16:30.607Z,100683.38
2019-05-22T07:19:10.107Z,100692.55
2019-05-22T07:21:47.116Z,100686.63
2019-05-22T07:24:26.592Z,100692.78
2019-05-22T07:27:32.111Z,100693.81
2019-05-22T07:30:11.417Z,100692.51
2019-05-22T07:32:54.189Z,100701.40
2019-05-22T07:35:49.808Z,100696.38
2019-05-22T07:38:11.254Z,100707.74
2019-05-22T07:40:55.776Z,100703.31
2019-05-22T07:43:40.894Z,100699.73
2019-05-22T07:46:14.607Z,100703.46
2019-05-22T07:48:51.740Z,100719.11
2019-05-22T07:51:31.499Z,100716.48
2019-05-22T07:54:08.777Z,100733.28
2019-05-22T07:56:44.795Z,100731.65
2019-05-22T07:59:22.098Z,100734.48
2019-05-22T08:01:57.833Z,100730.39
2019-05-22T08:04:33.183Z,100741.20
2019-05-22T08:07:10.871Z,100740.88
2019-05-22T08:09:50.026Z,100740.50
2019-05-22T08:12:25.592Z,100738.41
2019-05-22T08:15:01.386Z,100741.70
2019-05-22T08:17:37.120Z,100737.55
2019-05-22T08:20:13.204Z,100743.86
2019-05-22T08:22:57.382Z,100738.26
2019-05-22T08:25:32.944Z,100736.91
2019-05-22T08:28:14.043Z,100735.41
2019-05-22T08:30:49.472Z,100746.56
2019-05-22T08:33:26.096Z,100739.38
2019-05-22T08:36:09.923Z,100737.56
2019-05-22T08:38:45.278Z,100733.13
2019-05-22T08:41:27.962Z,100742.17
2019-05-22T08:44:16.174Z,100736.40
2019-05-22T08:46:40.675Z,100733.45
2019-05-22T08:49:17.851Z,100744.78
2019-05-22T08:52:00.156Z,100748.04
2019-05-22T08:54:41.741Z,100749.34
2019-05-22T08:57:20.218Z,100754.42
2019-05-22T08:59:55.571Z,100759.93
2019-05-22T09:02:37.169Z,100761.23
2019-05-22T09:05:15.962Z,100769.67
2019-05-22T09:07:56.880Z,100767.67
2019-05-22T09:10:33.506Z,100774.38
2019-05-22T09:13:12.493Z,100781.05
2019-05-22T09:15:48.537Z,100778.63
2019-05-22T09:18:25.446Z,100783.66
2019-05-22T09:21:01.151Z,100794.34
2019-05-22T09:23:44.644Z,100782.86
2019-05-22T09:26:20.761Z,100796.44
2019-05-22T09:28:57.390Z,100795.36
2019-05-22T09:31:37.931Z,100791.12
2019-05-22T09:34:14.327Z,100790.45
2019-05-22T09:36:53.196Z,100797.27
2019-05-22T09:39:48.847Z,100788.31
2019-05-22T09:42:39.958Z,100790.77
2019-05-22T09:45:19.584Z,100792.14
2019-05-22T09:47:55.251Z,100791.80
2019-05-22T09:50:36.390Z,100789.92
2019-05-22T09:53:11.776Z,100790.56
2019-05-22T09:55:53.914Z,100796.91
2019-05-22T09:58:30.399Z,100797.35
2019-05-22T10:01:11.522Z,100793.91
2019-05-22T10:03:51.911Z,100799.87
2019-05-22T10:06:27.653Z,100803.42
2019-05-22T10:09:04.004Z,100811.95
2019-05-22T10:11:39.180Z,100811.19
2019-05-22T10:14:14.906Z,100813.90
2019-05-22T10:16:55.323Z,100816.65
2019-05-22T10:19:30.930Z,100817.91
2019-05-22T10:22:12.831Z,100812.23
2019-05-22T10:24:52.126Z,100821.42
2019-05-22T10:27:28.989Z,100824.70
2019-05-22T10:30:14.223Z,100820.71
2019-05-22T10:32:50.992Z,100819.86
2019-05-22T10:35:34.091Z,100823.22
2019-05-22T10:38:11.550Z,100817.38
2019-05-22T10:40:58.580Z,100822.52
2019-05-22T10:43:31.354Z,100836.58
2019-05-22T10:46:07.751Z,100827.95
2019-05-22T10:48:43.362Z,100838.66
2019-05-22T10:51:24.455Z,100834.59
2019-05-22T10:54:02.240Z,100848.47
2019-05-22T10:56:38.611Z,100846.52
2019-05-22T10:59:14.116Z,100851.80
2019-05-22T11:01:52.613Z,100849.69
2019-05-22T11:04:29.934Z,100858.70
2019-05-22T11:07:10.994Z,100850.16
2019-05-22T11:09:46.826Z,100848.72
2019-05-22T11:12:24.621Z,100854.72
2019-05-22T11:15:02.131Z,100860.46
2019-05-22T11:17:38.984Z,100860.19
2019-05-22T11:20:14.833Z,100860.00
2019-05-22T11:22:50.582Z,100865.09
2019-05-22T11:25:25.883Z,100869.61
2019-05-22T11:31:06.894Z,100880.81
2019-05-22T11:33:46.953Z,100875.06
2019-05-22T11:36:25.280Z,100866.95
2019-05-22T11:39:17.170Z,100876.52
2019-05-22T11:42:02.571Z,100883.19
2019-05-22T11:45:01.100Z,100881.47
2019-05-22T11:47:39.480Z,100876.98
2019-05-22T11:50:20.218Z,100880.61
2019-05-22T11:53:09.662Z,100885.29
2019-05-22T11:55:53.631Z,100885.19
2019-05-22T11:58:35.179Z,100888.93
2019-05-22T12:01:11.642Z,100891.72
2019-05-22T12:03:47.897Z,100891.31
2019-05-22T12:06:35.628Z,100899.15
2019-05-22T12:09:28.900Z,100896.07
2019-05-22T12:12:11.321Z,100891.55
2019-05-22T12:14:51.324Z,100893.97
2019-05-22T12:17:37.568Z,100892.89
2019-05-22T12:20:07.520Z,100887.61
2019-05-22T12:22:43.833Z,100885.19
2019-05-22T12:25:25.889Z,100884.41
2019-05-22T12:28:15.411Z,100888.84
2019-05-22T12:30:51.211Z,100887.94
2019-05-22T12:33:27.577Z,100898.54
2019-05-22T12:36:06.690Z,100904.66
2019-05-22T12:38:56.671Z,100899.94
2019-05-22T12:41:43.417Z,100904.07
2019-05-22T12:44:22.818Z,100904.64
2019-05-22T12:47:00.916Z,100905.98
2019-05-22T12:49:41.901Z,100907.05
2019-05-22T12:52:22.502Z,100912.66
2019-05-22T12:55:15.350Z,100895.70
2019-05-22T12:57:54.939Z,100912.12
2019-05-22T13:00:34.182Z,100910.92
2019-05-22T13:03:25.905Z,100913.53
2019-05-22T13:06:11.314Z,100916.43
2019-05-22T13:08:49.292Z,100918.66
2019-05-22T13:11:26.376Z,100920.87
2019-05-22T13:14:01.715Z,100919.95
2019-05-22T13:16:42.275Z,100926.40
2019-05-22T13:19:18.228Z,100923.31
2019-05-22T13:21:54.591Z,100926.98
2019-05-22T13:24:30.978Z,100918.69
2019-05-22T13:27:07.987Z,100925.73
2019-05-22T13:29:46.317Z,100922.75
2019-05-22T13:32:22.810Z,100929.31
2019-05-22T13:35:01.742Z,100935.30
2019-05-22T13:37:48.725Z,100935.41
2019-05-22T13:40:30.837Z,100939.73
2019-05-22T13:43:14.644Z,100937.36
2019-05-22T13:45:51.016Z,100940.16
2019-05-22T13:48:46.316Z,100939.00
2019-05-22T13:51:25.562Z,100940.71
2019-05-22T13:54:05.509Z,100950.44
2019-05-22T13:56:58.502Z,100956.73
2019-05-22T13:59:43.989Z,100954.11
2019-05-22T14:02:31.570Z,100957.70
2019-05-22T14:05:07.590Z,100958.39
2019-05-22T14:07:43.129Z,100963.80
2019-05-22T14:10:19.941Z,100965.98
2019-05-22T14:12:56.195Z,100967.89
2019-05-22T14:15:49.918Z,100968.86
2019-05-22T14:18:29.774Z,100969.27
2019-05-22T14:21:09.195Z,100968.98
2019-05-22T14:23:51.850Z,100970.33
2019-05-22T14:26:32.289Z,100963.28
2019-05-22T14:29:21.067Z,100978.81
2019-05-22T14:32:01.670Z,100976.41
2019-05-22T14:34:38.809Z,100979.31
2019-05-22T14:37:25.559Z,100980.55
2019-05-22T14:40:18.603Z,100974.08
2019-05-22T14:43:02.270Z,100987.85
2019-05-22T14:45:51.034Z,100975.30
2019-05-22T14:48:33.237Z,100981.46
2019-05-22T14:51:12.509Z,100978.29
2019-05-22T14:53:59.142Z,100991.98
2019-05-22T14:56:38.576Z,100989.97
2019-05-22T14:59:17.276Z,100990.36
2019-05-22T15:02:01.314Z,100990.13
2019-05-22T15:04:53.508Z,100988.00
2019-05-22T15:07:42.442Z,100992.33
2019-05-22T15:10:22.789Z,101002.64
2019-05-22T15:13:22.343Z,101004.58
2019-05-22T15:16:04.869Z,101003.40
2019-05-22T15:18:41.953Z,101006.39
2019-05-22T15:27:43.718Z,101010.45
2019-05-22T15:30:22.470Z,101011.88
2019-05-22T15:33:13.156Z,101018.77
2019-05-22T15:35:49.976Z,101015.55
2019-05-22T15:38:31.382Z,101012.48
2019-05-22T15:41:20.911Z,101014.13
2019-05-22T15:44:03.262Z,101015.00
2019-05-22T15:49:41.922Z,101014.33
2019-05-22T15:55:46.683Z,101013.77
2019-05-22T15:58:27.344Z,101017.44
2019-05-22T16:01:11.649Z,101019.64
2019-05-22T16:03:57.988Z,101020.41
2019-05-22T16:10:09.592Z,101029.10
2019-05-22T16:12:56.506Z,101021.46
2019-05-22T16:21:51.874Z,101033.74
2019-05-22T16:24:32.629Z,101030.36
2019-05-22T16:27:24.410Z,101032.19
2019-05-22T16:30:10.247Z,101039.44
2019-05-22T16:33:32.514Z,101036.91
2019-05-22T16:36:30.579Z,101045.11
2019-05-22T16:39:19.888Z,101038.17
2019-05-22T16:42:12.297Z,101042.78
2019-05-22T16:48:03.718Z,101051.19
2019-05-22T16:51:06.250Z,101052.37
2019-05-22T17:07:37.858Z,101066.89
2019-05-22T17:10:16.644Z,101062.75
2019-05-22T17:13:00.627Z,101060.05
2019-05-22T17:15:41.172Z,101066.50
2019-05-22T17:18:21.501Z,101064.48
2019-05-22T17:20:59.892Z,101063.64
2019-05-22T17:23:41.473Z,101069.22
2019-05-22T17:26:19.279Z,101065.55
2019-05-22T17:28:56.907Z,101066.13
2019-05-22T17:31:34.507Z,101067.23
2019-05-22T17:34:11.334Z,101049.33
2019-05-22T17:36:48.535Z,101066.84
2019-05-22T17:39:24.623Z,101071.37
2019-05-22T17:42:05.004Z,101075.21
2019-05-22T17:44:41.054Z,101076.56
2019-05-22T17:47:17.668Z,101076.09
2019-05-22T17:49:58.028Z,101073.09
2019-05-22T17:52:37.642Z,101074.45
2019-05-22T17:55:20.621Z,101078.00
2019-05-22T17:58:11.484Z,101075.41
2019-05-22T18:00:49.453Z,101078.20
2019-05-22T18:03:26.132Z,101072.30
2019-05-22T18:06:06.257Z,101084.58
2019-05-22T18:08:44.764Z,101087.36
2019-05-22T18:11:30.042Z,101086.86
2019-05-22T18:14:08.131Z,101086.98
2019-05-22T18:16:49.816Z,101087.91
2019-05-22T18:19:25.816Z,101095.17
2019-05-22T18:22:02.306Z,101091.78
2019-05-22T18:28:14.152Z,101095.24
2019-05-22T18:33:50.053Z,101098.41
2019-05-22T18:36:33.308Z,101109.30
2019-05-22T18:39:13.648Z,101115.58
2019-05-22T18:41:51.745Z,101113.27
2019-05-22T18:44:26.897Z,101126.39
2019-05-22T18:47:08.979Z,101120.91
2019-05-22T18:49:51.252Z,101125.89
2019-05-22T18:52:40.727Z,101124.16
2019-05-22T18:55:19.238Z,101127.74
2019-05-22T18:57:57.898Z,101130.52
2019-05-22T19:00:36.410Z,101134.58
2019-05-22T19:03:17.057Z,101138.55
2019-05-22T19:05:54.265Z,101144.80
2019-05-22T19:08:42.077Z,101142.22
2019-05-22T19:11:20.239Z,101146.73
2019-05-22T19:14:04.146Z,101150.92
2019-05-22T19:16:50.433Z,101161.73
2019-05-22T19:19:53.069Z,101161.42
2019-05-22T19:22:58.369Z,101170.08
2019-05-22T19:25:34.319Z,101166.83
2019-05-22T19:28:21.585Z,101168.27
2019-05-22T19:31:02.857Z,101156.94
2019-05-22T19:33:43.936Z,101156.94
2019-05-22T19:36:40.023Z,101168.06
2019-05-22T19:39:26.994Z,101167.30
2019-05-22T19:42:11.490Z,101171.34
2019-05-22T19:44:50.495Z,101177.63
2019-05-22T19:47:48.691Z,101185.32
2019-05-22T19:50:22.698Z,101184.55
2019-05-22T19:53:15.695Z,101194.39
2019-05-22T19:55:48.936Z,101192.57
2019-05-22T20:05:29.656Z,101190.09
2019-05-22T20:08:11.227Z,101193.04
2019-05-22T20:11:00.397Z,101204.04
2019-05-22T20:13:47.474Z,101207.20
2019-05-22T20:16:37.673Z,101211.72
2019-05-22T20:19:14.401Z,101203.73
2019-05-22T20:22:31.310Z,101211.92
2019-05-22T20:25:30.963Z,101212.77
2019-05-22T20:28:36.210Z,101211.70
2019-05-22T20:34:29.022Z,101207.50
2019-05-22T20:37:07.224Z,101221.00
2019-05-22T20:39:52.262Z,101220.53
2019-05-22T20:42:28.603Z,101217.25
2019-05-22T20:45:06.023Z,101222.03
2019-05-22T20:47:48.233Z,101219.06
2019-05-22T20:50:25.573Z,101215.70
2019-05-22T20:53:01.490Z,101230.17
2019-05-22T20:55:39.779Z,101229.39
2019-05-22T20:58:17.908Z,101232.17
2019-05-22T21:00:58.859Z,101226.09
2019-05-22T21:03:34.365Z,101235.23
2019-05-22T21:06:13.011Z,101237.94
2019-05-22T21:08:48.540Z,101231.50
2019-05-22T21:11:26.174Z,101235.08
2019-05-22T21:14:01.835Z,101241.75
2019-05-22T21:16:37.416Z,101243.80
2019-05-22T21:19:16.781Z,101241.71
2019-05-22T21:21:52.996Z,101237.58
2019-05-22T21:24:29.259Z,101239.04
2019-05-22T21:27:06.558Z,101238.19
2019-05-22T21:29:43.096Z,101238.35
2019-05-22T21:32:19.289Z,101236.70
2019-05-22T21:34:55.626Z,101239.70
2019-05-22T21:37:32.435Z,101241.33
2019-05-22T21:40:09.116Z,101239.75
2019-05-22T21:42:47.039Z,101238.31
2019-05-22T21:45:24.538Z,101239.75
2019-05-22T21:48:06.909Z,101244.02
2019-05-22T21:50:42.902Z,101232.53
2019-05-22T21:53:19.757Z,101229.64
2019-05-22T21:56:04.322Z,101241.33
2019-05-22T21:58:35.161Z,101230.95
2019-05-22T22:01:12.496Z,101235.70
2019-05-22T22:03:55.989Z,101238.70
2019-05-22T22:06:33.268Z,101236.00
2019-05-22T22:09:09.156Z,101247.63
2019-05-22T22:11:46.624Z,101243.11
2019-05-22T22:14:22.759Z,101246.42
2019-05-22T22:17:00.631Z,101251.44
2019-05-22T22:19:38.603Z,101250.63
2019-05-22T22:22:18.052Z,101247.39
2019-05-22T22:24:53.495Z,101249.63
2019-05-22T22:27:32.701Z,101252.25
2019-05-22T22:30:11.944Z,101255.26
2019-05-22T22:32:47.467Z,101255.19
2019-05-22T22:35:27.144Z,101263.25
2019-05-22T22:38:06.387Z,101265.41
2019-05-22T22:40:43.154Z,101270.65
2019-05-22T22:43:20.917Z,101270.45
2019-05-22T22:45:59.641Z,101266.09
2019-05-22T22:48:38.482Z,101266.94
2019-05-22T22:51:15.513Z,101263.16
2019-05-22T22:53:51.939Z,101270.55
2019-05-22T22:56:27.445Z,101265.77
2019-05-22T22:59:03.823Z,101273.41
2019-05-22T23:01:42.239Z,101272.31
2019-05-22T23:04:18.481Z,101276.51
2019-05-22T23:06:55.175Z,101275.62
2019-05-22T23:09:32.198Z,101274.45
2019-05-22T23:12:08.107Z,101268.49
2019-05-22T23:14:47.255Z,101270.48
2019-05-22T23:17:22.594Z,101268.83
2019-05-22T23:19:56.667Z,101271.20
2019-05-22T23:22:31.779Z,101279.45
2019-05-22T23:25:07.083Z,101274.63
2019-05-22T23:27:43.032Z,101278.28
2019-05-22T23:30:21.044Z,101280.48
2019-05-22T23:32:59.456Z,101276.86
2019-05-22T23:35:36.446Z,101281.84
2019-05-22T23:38:11.988Z,101278.89
2019-05-22T23:40:47.217Z,101279.82
2019-05-22T23:43:22.336Z,101283.83
2019-05-22T23:45:59.069Z,101286.98
2019-05-22T23:48:35.052Z,101287.20
2019-05-22T23:51:10.414Z,101285.47
2019-05-22T23:53:45.975Z,101287.78
2019-05-22T23:56:22.720Z,101288.49
2019-05-22T23:58:58.864Z,101264.20
